Time;durP1;ratioP1;P1;durP2;ratioP2;P2;SDS_P1;SDS_P2;PMS_P1;PMS_P2;Temp;Humidity;BMP_temperature;BMP_pressure;BME280_temperature;BME280_humidity;BME280_pressure;Samples;Min_cycle;Max_cycle;Signal;HPM_P1;HPM_P2
2022/09/14 03:58:16;;;;;;;5.53;3.40;;;;;;;14.59;84.34;99772.16;6663088;26;20087;-87
2022/09/14 04:01:21;;;;;;;7.10;3.60;;;;;;;14.54;84.00;99766.59;6662504;26;34114;-88
2022/09/14 04:04:23;;;;;;;6.82;3.97;;;;;;;14.49;83.50;99764.50;6657827;26;34819;-88
2022/09/14 04:07:26;;;;;;;4.75;3.50;;;;;;;14.48;84.71;99767.44;6643414;26;32356;-88
2022/09/14 04:10:29;;;;;;;4.75;3.90;;;;;;;14.45;85.30;99763.28;6663438;26;33724;-88
2022/09/14 04:13:32;;;;;;;8.02;4.12;;;;;;;14.43;85.12;99759.13;6660114;26;35400;-87
2022/09/14 04:16:35;;;;;;;6.55;4.30;;;;;;;14.46;84.19;99758.69;6656529;26;35432;-87
2022/09/14 04:19:59;;;;;;;5.90;4.03;;;;;;;14.40;83.64;99756.84;6655658;26;35118;-87
2022/09/14 04:23:02;;;;;;;4.62;3.70;;;;;;;14.35;84.50;99752.06;6656160;26;34193;-89
2022/09/14 04:26:11;;;;;;;7.30;3.78;;;;;;;14.32;83.80;99733.56;6655907;26;34737;-87
2022/09/14 04:29:14;;;;;;;5.63;3.37;;;;;;;14.29;84.40;99731.28;6656108;26;33511;-89
2022/09/14 04:32:17;;;;;;;7.82;4.25;;;;;;;14.27;85.14;99731.53;6663507;26;34038;-89
2022/09/14 04:35:19;;;;;;;8.48;3.90;;;;;;;14.21;85.54;99721.53;6658163;26;33730;-87
2022/09/14 04:38:22;;;;;;;7.35;3.92;;;;;;;14.21;85.90;99723.41;6663762;26;34659;-87
2022/09/14 04:41:26;;;;;;;6.07;3.65;;;;;;;14.23;85.75;99718.63;6664454;26;35508;-87
2022/09/14 04:44:31;;;;;;;4.62;3.80;;;;;;;14.20;85.34;99733.44;6657013;26;35207;-89
2022/09/14 04:51:57;;;;;;;5.10;3.75;;;;;;;14.25;84.54;99720.06;6658634;26;20079;-88
2022/09/14 04:55:00;;;;;;;5.60;4.10;;;;;;;14.28;84.59;99735.06;6644271;26;32815;-89
2022/09/14 04:58:04;;;;;;;6.62;3.65;;;;;;;14.34;83.77;99722.53;6646529;26;32801;-89
2022/09/14 05:01:12;;;;;;;5.12;3.75;;;;;;;14.43;83.37;99715.78;6656975;26;33869;-89
2022/09/14 05:04:35;;;;;;;5.57;4.03;;;;;;;14.51;81.90;99713.69;6640408;26;34405;-88
2022/09/14 05:07:40;;;;;;;9.40;4.10;;;;;;;14.63;81.13;99711.09;6638436;26;33324;-87
2022/09/14 05:10:45;;;;;;;4.68;3.80;;;;;;;14.69;80.63;99721.03;6657924;26;34714;-88
2022/09/14 05:13:52;;;;;;;7.55;4.35;;;;;;;14.70;81.05;99719.16;6643963;26;33000;-87
2022/09/14 05:16:55;;;;;;;5.47;3.78;;;;;;;14.75;80.47;99730.16;6656602;26;34039;-88
2022/09/14 05:19:58;;;;;;;12.27;3.83;;;;;;;14.79;80.86;99733.25;6636848;26;33496;-87
2022/09/14 05:23:00;;;;;;;8.13;4.70;;;;;;;14.82;81.70;99730.09;6656849;26;33877;-86
2022/09/14 05:26:04;;;;;;;8.77;3.87;;;;;;;14.86;80.50;99736.72;6656652;26;34093;-87
2022/09/14 05:29:11;;;;;;;6.10;4.15;;;;;;;14.97;80.27;99744.13;6639009;26;32709;-89
2022/09/14 05:32:14;;;;;;;6.90;4.12;;;;;;;15.10;79.35;99744.03;6658509;26;34294;-86
2022/09/14 05:35:18;;;;;;;5.18;4.05;;;;;;;15.15;78.46;99741.50;6668350;26;34062;-86
2022/09/14 05:42:12;;;;;;;5.60;3.65;;;;;;;15.28;78.25;99697.13;6586730;27;34789;-87
2022/09/14 05:45:33;;;;;;;8.73;3.67;;;;;;;15.30;77.99;99696.91;6578095;27;34061;-87
2022/09/14 05:48:37;;;;;;;5.28;3.87;;;;;;;15.39;78.24;99687.41;6620048;26;34302;-87
2022/09/14 05:51:39;;;;;;;10.32;4.12;;;;;;;15.37;78.22;99701.19;6664687;26;33845;-86
2022/09/14 05:54:42;;;;;;;4.95;3.47;;;;;;;15.41;78.12;99699.69;6659892;26;33866;-87
2022/09/14 05:57:48;;;;;;;7.50;3.97;;;;;;;15.49;75.97;99705.88;6664322;26;33199;-87
2022/09/14 06:00:52;;;;;;;7.07;3.67;;;;;;;15.58;75.31;99710.75;6662442;26;34133;-87
2022/09/14 06:03:59;;;;;;;5.40;3.40;;;;;;;15.68;74.89;99720.28;6657839;26;34023;-86
2022/09/14 06:07:01;;;;;;;7.50;3.70;;;;;;;15.84;74.90;99725.91;6664345;26;33727;-86
2022/09/14 06:10:20;;;;;;;4.50;3.43;;;;;;;16.02;72.79;99732.38;6664568;26;35349;-88
2022/09/14 06:13:23;;;;;;;7.03;3.45;;;;;;;16.07;72.59;99727.91;6664885;26;35705;-88
2022/09/14 06:16:27;;;;;;;6.47;3.50;;;;;;;16.15;73.17;99724.06;6644708;26;33704;-88
2022/09/14 06:19:29;;;;;;;5.37;3.42;;;;;;;16.27;72.37;99714.06;6665471;26;34165;-89
2022/09/14 06:22:32;;;;;;;4.57;3.20;;;;;;;16.55;72.12;99707.16;6660919;26;33869;-86
2022/09/14 06:25:35;;;;;;;6.35;3.80;;;;;;;16.69;71.16;99702.34;6675694;26;34007;-86
2022/09/14 06:28:38;;;;;;;4.65;3.40;;;;;;;16.88;70.90;99713.97;6671387;26;33728;-86
2022/09/14 06:31:41;;;;;;;6.47;3.62;;;;;;;17.04;69.56;99726.03;6673489;26;35333;-85
2022/09/14 06:34:44;;;;;;;6.65;3.40;;;;;;;17.03;70.20;99713.50;6678299;26;34457;-85
2022/09/14 06:37:46;;;;;;;7.07;3.60;;;;;;;17.05;71.58;99701.31;6664590;26;34649;-88
2022/09/14 06:41:01;;;;;;;4.78;3.80;;;;;;;16.95;69.61;99704.63;6664442;26;34080;-88
2022/09/14 06:44:08;;;;;;;6.60;4.18;;;;;;;17.07;69.68;99711.97;6657769;26;35630;-86
2022/09/14 06:47:55;;;;;;;8.15;4.12;;;;;;;16.91;70.13;99716.22;6661399;26;21409;-85
2022/09/14 06:50:58;;;;;;;5.25;3.62;;;;;;;17.00;71.10;99737.38;6664786;26;34108;-88
2022/09/14 06:54:04;;;;;;;7.12;4.05;;;;;;;17.08;68.92;99738.09;6667956;26;34270;-88
2022/09/14 06:57:07;;;;;;;6.68;3.80;;;;;;;16.94;70.27;99743.78;6658714;26;35214;-86
2022/09/14 07:00:13;;;;;;;7.00;3.80;;;;;;;16.93;69.71;99738.56;6662960;26;34670;-86
2022/09/14 07:03:16;;;;;;;7.15;3.85;;;;;;;16.72;73.35;99721.72;6665761;26;34129;-86
2022/09/14 07:06:21;;;;;;;5.80;4.12;;;;;;;16.54;74.18;99725.34;6645727;26;32244;-89
2022/09/14 07:13:17;;;;;;;8.45;4.95;;;;;;;16.10;81.93;99708.44;6646790;26;35130;-89
2022/09/14 07:24:15;;;;;;;7.30;4.97;;;;;;;15.27;94.77;99716.31;6655969;26;34110;-86
2022/09/14 07:27:18;;;;;;;7.47;5.07;;;;;;;15.28;99.06;99710.69;6658046;26;33995;-87
2022/09/14 07:30:23;;;;;;;10.13;4.50;;;;;;;15.29;98.03;99717.75;6657062;26;34059;-89
2022/09/14 07:33:27;;;;;;;7.50;4.82;;;;;;;15.22;96.44;99733.28;6639300;26;33363;-87
2022/09/14 07:36:32;;;;;;;8.85;4.97;;;;;;;15.29;98.18;99727.78;6657012;26;34021;-87
2022/09/14 07:39:36;;;;;;;10.85;5.18;;;;;;;15.38;99.61;99729.97;6639443;26;139563;-87
2022/09/14 07:42:39;;;;;;;10.48;5.87;;;;;;;15.56;100.00;99710.19;6672136;26;34945;-87
2022/09/14 07:45:42;;;;;;;9.65;5.20;;;;;;;15.67;93.56;99714.00;6638875;26;33044;-87
2022/09/14 07:48:53;;;;;;;9.57;5.05;;;;;;;15.86;93.85;99717.56;6637989;26;32659;-88
2022/09/14 07:51:55;;;;;;;9.65;4.85;;;;;;;15.97;94.72;99710.50;6675332;26;34290;-88
2022/09/14 07:54:58;;;;;;;7.07;4.90;;;;;;;16.15;93.68;99707.78;6648019;26;116410;-87
2022/09/14 07:58:01;;;;;;;10.07;5.20;;;;;;;16.34;92.74;99708.53;6681660;26;35673;-86
2022/09/14 08:01:10;;;;;;;8.82;4.87;;;;;;;16.40;94.20;99702.16;6682569;26;34603;-86
2022/09/14 08:04:13;;;;;;;;;;;;;;;16.55;90.17;99705.28;6663469;26;34516;-86
2022/09/14 08:07:15;;;;;;;8.85;5.20;;;;;;;16.66;88.30;99714.50;6675300;26;35495;-86
2022/09/14 08:10:19;;;;;;;7.97;4.82;;;;;;;16.69;89.09;99716.75;6683303;26;35439;-87
2022/09/14 08:13:21;;;;;;;10.23;5.00;;;;;;;16.96;87.49;99700.88;6656516;26;34317;-87
2022/09/14 08:16:26;;;;;;;8.68;5.07;;;;;;;17.14;88.01;99690.91;6663588;26;33413;-86
2022/09/14 08:19:29;;;;;;;10.13;5.75;;;;;;;17.14;87.93;99691.75;6664468;26;32746;-86
2022/09/14 08:22:31;;;;;;;8.52;5.70;;;;;;;17.06;87.13;99677.69;6651509;26;32334;-87
2022/09/14 08:25:33;;;;;;;10.25;5.37;;;;;;;16.87;86.65;99668.81;6643875;26;33395;-87
2022/09/14 08:28:37;;;;;;;10.93;5.57;;;;;;;16.89;90.59;99680.28;6662016;26;34794;-86
2022/09/14 08:31:40;;;;;;;10.43;5.15;;;;;;;17.02;90.15;99690.91;6662435;26;34800;-88
2022/09/14 08:34:42;;;;;;;9.93;4.87;;;;;;;17.14;87.91;99685.47;6642523;26;32820;-89
2022/09/14 08:37:44;;;;;;;8.30;5.00;;;;;;;17.42;85.00;99684.72;6662512;26;35134;-88
2022/09/14 08:40:48;;;;;;;8.40;5.07;;;;;;;17.79;86.67;99685.25;6663414;26;35514;-91
2022/09/14 08:43:52;;;;;;;10.65;5.43;;;;;;;18.14;83.71;99687.00;6666109;26;34288;-88
2022/09/14 08:47:08;;;;;;;7.62;4.70;;;;;;;18.29;81.85;99673.66;6640797;26;33712;-87
2022/09/14 08:50:20;;;;;;;9.98;5.05;;;;;;;18.64;81.89;99669.88;6641701;26;33689;-87
2022/09/14 08:53:24;;;;;;;11.07;4.95;;;;;;;18.63;79.48;99665.47;6643821;26;32717;-86
2022/09/14 08:56:32;;;;;;;11.90;5.20;;;;;;;18.90;78.00;99662.94;6661688;26;33952;-87
2022/09/14 08:59:45;;;;;;;10.07;5.43;;;;;;;19.01;79.09;99659.28;6663870;26;34798;-86
2022/09/14 09:03:17;;;;;;;6.85;4.93;;;;;;;19.40;75.61;99653.81;6663900;26;33631;-87
2022/09/14 09:06:31;;;;;;;5.93;5.15;;;;;;;19.60;76.48;99666.06;6642672;26;33877;-87
2022/09/14 09:09:49;;;;;;;6.90;5.03;;;;;;;19.87;74.69;99658.75;6663606;26;33707;-87
2022/09/14 09:12:55;;;;;;;8.60;5.55;;;;;;;20.27;75.07;99662.12;6663143;26;33788;-87
2022/09/14 09:16:01;;;;;;;6.45;4.35;;;;;;;20.37;73.33;99659.50;6661467;26;34725;-87
2022/09/14 09:19:10;;;;;;;5.68;3.97;;;;;;;20.36;68.77;99655.97;6641424;26;33018;-87
2022/09/14 09:22:19;;;;;;;6.40;4.40;;;;;;;20.37;70.17;99660.34;6643030;26;32726;-87
2022/09/14 09:25:26;;;;;;;7.10;4.82;;;;;;;20.56;70.37;99666.28;6663173;26;34178;-87
2022/09/14 09:28:28;;;;;;;7.70;4.57;;;;;;;20.65;69.01;99679.44;6664195;26;35061;-90
2022/09/14 09:31:42;;;;;;;9.77;5.00;;;;;;;21.01;67.05;99689.59;6661944;26;34053;-91
2022/09/14 09:34:46;;;;;;;7.03;4.80;;;;;;;21.33;65.13;99693.34;6664164;26;35069;-88
2022/09/14 09:37:49;;;;;;;5.78;5.15;;;;;;;21.46;65.23;99696.44;6678304;26;35435;-87
2022/09/14 09:41:03;;;;;;;9.77;5.80;;;;;;;21.59;65.96;99703.37;6655977;26;32300;-88
2022/09/14 09:44:09;;;;;;;7.05;5.18;;;;;;;21.43;63.69;99707.09;6662990;26;34267;-87
2022/09/14 09:47:12;;;;;;;9.25;5.53;;;;;;;21.30;64.42;99713.84;6663041;26;33846;-87
2022/09/14 09:50:14;;;;;;;10.20;6.50;;;;;;;21.34;65.54;99714.97;6658357;26;34918;-87
2022/09/14 09:53:21;;;;;;;10.10;5.80;;;;;;;21.35;63.81;99702.91;6662475;26;34645;-88
2022/09/14 09:56:35;;;;;;;11.77;6.15;;;;;;;21.41;65.69;99704.66;6663244;26;34975;-88
2022/09/14 09:59:41;;;;;;;11.48;6.00;;;;;;;21.77;63.46;99699.31;6643409;26;33900;-88
2022/09/14 10:02:44;;;;;;;9.77;5.70;;;;;;;21.82;65.08;99702.09;6664728;26;34497;-88
2022/09/14 10:06:00;;;;;;;8.10;5.97;;;;;;;22.04;64.11;99701.03;6665599;26;35214;-89
2022/09/14 10:09:12;;;;;;;9.07;5.30;;;;;;;22.20;63.71;99705.50;6645478;26;33110;-88
2022/09/14 10:12:15;;;;;;;10.98;5.53;;;;;;;22.27;64.18;99705.25;6668469;26;33919;-88
2022/09/14 10:15:29;;;;;;;8.98;5.45;;;;;;;22.52;63.08;99705.28;6644166;26;33333;-88
2022/09/14 10:18:32;;;;;;;9.13;5.10;;;;;;;22.65;60.42;99712.13;6663354;26;33539;-88
2022/09/14 10:21:35;;;;;;;8.98;5.53;;;;;;;22.94;61.03;99714.34;6663380;26;33972;-88
2022/09/14 10:24:38;;;;;;;9.23;5.35;;;;;;;22.97;60.54;99716.56;6663057;26;34755;-88
2022/09/14 10:27:48;;;;;;;20.48;5.30;;;;;;;23.07;61.53;99700.88;6642739;26;32198;-88
2022/09/14 10:30:58;;;;;;;9.05;5.05;;;;;;;22.99;60.06;99697.88;6662813;26;34076;-88
2022/09/14 10:34:01;;;;;;;7.00;4.70;;;;;;;23.20;59.52;99693.19;6663529;26;34224;-88
2022/09/14 10:37:25;;;;;;;6.65;4.97;;;;;;;23.29;60.07;99684.09;6662830;26;33540;-88
2022/09/14 10:40:43;;;;;;;7.03;4.78;;;;;;;23.61;61.32;99674.63;6663407;26;34240;-88
2022/09/14 10:44:40;;;;;;;5.50;4.70;;;;;;;23.68;60.42;99666.91;6663824;26;34949;-88
2022/09/14 10:47:53;;;;;;;6.40;4.75;;;;;;;23.39;59.94;99671.41;6563988;26;33826;-87
2022/09/14 10:51:14;;;;;;;7.45;4.32;;;;;;;22.98;60.29;99674.28;6662652;26;34901;-87
2022/09/14 10:54:43;;;;;;;7.62;4.40;;;;;;;22.89;61.93;99671.22;6642817;26;32445;-87
2022/09/14 10:57:58;;;;;;;6.68;4.32;;;;;;;23.23;60.23;99682.47;6646589;26;33246;-88
2022/09/14 11:01:15;;;;;;;7.65;4.60;;;;;;;23.25;60.14;99673.94;6641950;26;32390;-88
2022/09/14 11:04:21;;;;;;;8.20;3.70;;;;;;;23.02;61.14;99678.94;6641511;26;33815;-90
2022/09/14 11:07:34;;;;;;;7.00;4.28;;;;;;;23.21;61.23;99678.34;6641829;26;32223;-88
2022/09/14 11:10:53;;;;;;;7.12;4.47;;;;;;;23.41;61.50;99672.78;6642507;26;33599;-88
2022/09/14 11:14:11;;;;;;;6.93;4.37;;;;;;;23.57;60.51;99679.03;6662765;26;33881;-87
2022/09/14 11:17:39;;;;;;;14.68;4.50;;;;;;;23.57;60.05;99670.78;6660405;26;33811;-87
2022/09/14 11:21:09;;;;;;;5.87;4.15;;;;;;;23.30;60.68;99660.19;6658150;26;34001;-88
2022/09/14 11:24:18;;;;;;;9.77;4.40;;;;;;;23.34;61.67;99658.50;6642123;26;33594;-88
2022/09/14 11:27:24;;;;;;;6.43;4.53;;;;;;;23.43;62.59;99653.25;6662499;26;34023;-88
2022/09/14 11:30:36;;;;;;;8.55;4.87;;;;;;;23.43;62.44;99656.84;6642434;26;34424;-88
2022/09/14 11:33:45;;;;;;;7.37;4.53;;;;;;;23.15;62.54;99660.25;6642406;26;33716;-88
2022/09/14 11:36:53;;;;;;;6.70;4.30;;;;;;;22.78;65.03;99653.94;6642574;26;32791;-88
2022/09/14 11:39:59;;;;;;;6.00;4.43;;;;;;;22.70;64.45;99646.28;6642119;26;32449;-88
2022/09/14 11:43:14;;;;;;;5.80;4.03;;;;;;;22.61;65.60;99651.50;6662921;26;34240;-91
2022/09/14 11:46:38;;;;;;;6.87;4.07;;;;;;;22.67;64.56;99641.34;6662887;26;33850;-88
2022/09/14 11:50:20;;;;;;;7.75;4.22;;;;;;;22.73;64.76;99628.44;6650356;26;33728;-88
2022/09/14 11:53:24;;;;;;;6.22;4.18;;;;;;;22.75;65.09;99632.53;6653439;26;33946;-88
2022/09/14 11:56:32;;;;;;;6.82;3.92;;;;;;;23.03;64.82;99622.91;6663050;26;33910;-88
2022/09/14 11:59:38;;;;;;;4.93;3.67;;;;;;;22.97;65.03;99623.22;6642429;26;32965;-88
2022/09/14 12:02:41;;;;;;;7.47;4.03;;;;;;;23.19;65.70;99629.19;6662630;26;33916;-88
2022/09/14 12:05:46;;;;;;;7.03;4.10;;;;;;;23.26;64.21;99623.41;6664299;26;34627;-88
2022/09/14 12:08:49;;;;;;;6.22;3.92;;;;;;;23.24;65.29;99629.16;6679530;26;34904;-88
2022/09/14 12:11:58;;;;;;;5.05;3.87;;;;;;;23.43;64.27;99620.28;6681877;26;35088;-88
2022/09/14 12:15:03;;;;;;;5.00;3.85;;;;;;;23.80;62.06;99619.06;6652448;26;32727;-88
2022/09/14 12:18:06;;;;;;;5.10;3.75;;;;;;;24.06;61.87;99612.28;6662451;26;34273;-88
2022/09/14 12:21:24;;;;;;;4.68;3.87;;;;;;;24.43;61.02;99610.94;6662566;26;34564;-87
2022/09/14 12:24:27;;;;;;;5.43;3.58;;;;;;;24.84;59.25;99616.06;6661777;26;34040;-88
2022/09/14 12:27:34;;;;;;;5.00;3.42;;;;;;;24.87;58.76;99605.28;6662748;26;33492;-85
2022/09/14 12:30:40;;;;;;;3.83;3.40;;;;;;;25.13;57.16;99599.50;6664232;26;34330;-85
2022/09/14 12:34:03;;;;;;;4.93;3.45;;;;;;;25.14;57.86;99595.63;6660474;26;34889;-85
2022/09/14 12:37:27;;;;;;;5.87;3.45;;;;;;;24.92;58.16;99598.06;6660408;26;35163;-86
2022/09/14 12:40:36;;;;;;;5.53;3.78;;;;;;;24.56;60.33;99590.97;6663465;26;33743;-86
2022/09/14 12:43:38;;;;;;;4.95;3.30;;;;;;;24.66;59.00;99592.84;6661788;26;34061;-86
2022/09/14 12:46:41;;;;;;;7.12;3.40;;;;;;;25.01;58.73;99586.12;6663973;26;35358;-85
2022/09/14 12:49:45;;;;;;;3.67;3.20;;;;;;;25.82;55.26;99574.34;6639656;26;32504;-86
2022/09/14 12:53:02;;;;;;;6.43;3.08;;;;;;;27.23;53.19;99572.19;6640658;26;32325;-86
2022/09/14 12:56:16;;;;;;;3.42;2.83;;;;;;;28.82;48.55;99560.13;6664023;26;33943;-86
2022/09/14 12:59:26;;;;;;;3.87;3.10;;;;;;;29.44;46.70;99554.44;6660699;26;33914;-86
2022/09/14 13:03:03;;;;;;;5.07;3.20;;;;;;;30.09;44.45;99543.53;6641224;26;32957;-86
2022/09/14 13:06:11;;;;;;;9.65;3.00;;;;;;;30.26;43.68;99538.00;6657263;26;34572;-86
2022/09/14 13:09:21;;;;;;;3.53;2.60;;;;;;;30.54;42.39;99527.31;6681170;26;34490;-86
2022/09/14 13:12:33;;;;;;;3.22;2.35;;;;;;;31.45;39.52;99524.28;6648240;26;33078;-86
2022/09/14 13:15:48;;;;;;;5.22;2.30;;;;;;;33.39;36.38;99524.28;6681201;26;34951;-87
2022/09/14 13:18:59;;;;;;;3.85;2.47;;;;;;;34.11;33.88;99520.84;6645372;26;33772;-87
2022/09/14 13:22:16;;;;;;;2.15;2.00;;;;;;;33.18;35.60;99525.25;6640449;26;32975;-86
2022/09/14 13:25:38;;;;;;;;;;;;;;;31.88;37.96;99523.91;6638932;26;33561;-86
2022/09/14 13:28:44;;;;;;;4.15;2.55;;;;;;;30.38;40.69;99529.78;6639420;26;33508;-86
2022/09/14 13:31:47;;;;;;;3.15;2.80;;;;;;;30.43;40.82;99532.41;6660346;26;33916;-86
2022/09/14 13:34:51;;;;;;;3.12;2.65;;;;;;;30.68;40.74;99527.06;6640930;26;32728;-87
2022/09/14 13:37:54;;;;;;;9.55;3.37;;;;;;;30.52;40.50;99531.56;6641357;26;32659;-86
2022/09/14 13:41:09;;;;;;;5.68;2.60;;;;;;;31.23;39.29;99536.50;6661580;26;33505;-86
2022/09/14 13:44:12;;;;;;;4.12;3.08;;;;;;;31.86;39.04;99531.78;6666416;26;35076;-86
2022/09/14 13:47:20;;;;;;;2.75;2.37;;;;;;;30.86;39.56;99536.19;6661226;26;34830;-86
2022/09/14 13:50:24;;;;;;;3.78;2.55;;;;;;;31.69;38.75;99527.19;6662106;26;33532;-86
2022/09/14 13:53:40;;;;;;;3.25;2.50;;;;;;;32.28;38.05;99526.97;6661616;26;34810;-86
2022/09/14 13:56:43;;;;;;;2.50;2.30;;;;;;;31.50;38.79;99532.41;6661353;26;34432;-86
2022/09/14 14:00:18;;;;;;;2.55;1.98;;;;;;;31.32;39.24;99526.13;6641499;26;33672;-86
2022/09/14 14:03:27;;;;;;;3.58;2.20;;;;;;;30.39;41.11;99523.13;6641705;26;32647;-86
2022/09/14 14:06:37;;;;;;;3.45;2.62;;;;;;;30.53;41.63;99519.28;6661714;26;34138;-89
2022/09/14 14:09:43;;;;;;;6.15;2.47;;;;;;;30.09;43.11;99515.78;6642598;26;32881;-87
2022/09/14 14:12:46;;;;;;;3.25;2.60;;;;;;;29.32;44.87;99510.72;6647561;26;32145;-86
2022/09/14 14:15:53;;;;;;;4.78;2.42;;;;;;;28.41;47.56;99503.88;6660380;26;35517;-85
2022/09/14 14:18:57;;;;;;;2.80;2.40;;;;;;;27.45;48.73;99487.69;6662712;26;33729;-86
2022/09/14 14:22:26;;;;;;;4.93;2.53;;;;;;;26.75;50.61;99492.47;6641748;26;34341;-86
2022/09/14 14:25:36;;;;;;;3.92;2.55;;;;;;;26.24;53.07;99493.41;6641295;26;34560;-86
2022/09/14 14:28:46;;;;;;;3.67;2.80;;;;;;;25.77;54.05;99492.53;6639451;26;33632;-86
2022/09/14 14:31:49;;;;;;;3.10;2.70;;;;;;;25.61;55.68;99493.88;6640590;26;33076;-86
2022/09/14 14:34:53;;;;;;;4.53;2.70;;;;;;;25.47;55.64;99502.06;6642031;26;32771;-85
2022/09/14 14:37:56;;;;;;;3.87;2.53;;;;;;;25.43;56.64;99487.25;6641489;26;32679;-85
2022/09/14 14:41:00;;;;;;;5.10;2.80;;;;;;;25.23;56.58;99483.66;6660876;26;34108;-85
2022/09/14 14:44:03;;;;;;;3.75;2.90;;;;;;;25.22;56.74;99484.81;6664684;26;34256;-86
2022/09/14 14:47:06;;;;;;;5.28;2.97;;;;;;;24.99;58.10;99474.63;6663062;26;34539;-85
2022/09/14 14:50:15;;;;;;;4.75;2.78;;;;;;;25.02;57.28;99468.53;6662002;26;33927;-86
2022/09/14 14:53:18;;;;;;;3.25;2.80;;;;;;;25.24;57.03;99467.97;6661366;26;35392;-85
2022/09/14 14:56:21;;;;;;;4.75;2.53;;;;;;;25.01;57.50;99459.44;6661693;26;34233;-85
2022/09/14 14:59:28;;;;;;;3.62;2.72;;;;;;;24.67;58.62;99462.34;6641934;26;33900;-85
2022/09/14 15:02:31;;;;;;;6.28;2.60;;;;;;;24.66;58.36;99466.22;6662321;26;33778;-86
2022/09/14 15:05:38;;;;;;;3.60;2.90;;;;;;;24.23;60.31;99470.78;6662290;26;33824;-86
2022/09/14 15:08:40;;;;;;;4.70;2.55;;;;;;;24.13;60.69;99471.69;6641431;26;32489;-85
2022/09/14 15:11:44;;;;;;;4.03;2.87;;;;;;;24.04;61.56;99460.50;6641490;26;32357;-86
2022/09/14 15:14:46;;;;;;;3.17;2.85;;;;;;;23.96;61.10;99455.66;6661438;26;34134;-85
2022/09/14 15:17:50;;;;;;;3.78;2.90;;;;;;;23.92;62.14;99451.81;6660935;26;34072;-85
2022/09/14 15:20:53;;;;;;;2.90;2.60;;;;;;;23.87;62.29;99449.09;6642210;26;32903;-86
2022/09/14 15:23:57;;;;;;;6.55;2.70;;;;;;;23.84;62.22;99445.03;6660555;26;34552;-86
2022/09/14 15:27:00;;;;;;;3.80;2.50;;;;;;;23.92;62.98;99440.81;6640835;26;32464;-86
2022/09/14 15:30:04;;;;;;;4.47;3.00;;;;;;;23.92;63.15;99429.81;6661403;26;35306;-86
2022/09/14 15:33:07;;;;;;;3.53;2.80;;;;;;;23.93;62.64;99420.50;6661767;26;34527;-86
2022/09/14 15:36:10;;;;;;;4.53;2.70;;;;;;;23.85;62.63;99415.59;6663949;26;34322;-90
2022/09/14 15:39:14;;;;;;;4.30;2.70;;;;;;;23.77;62.88;99420.59;6667989;26;35204;-88
2022/09/14 15:42:17;;;;;;;2.72;2.47;;;;;;;23.63;63.74;99410.53;6676140;26;35495;-87
2022/09/14 15:45:20;;;;;;;4.60;2.62;;;;;;;23.60;64.06;99409.19;6673429;26;33695;-86
2022/09/14 15:48:23;;;;;;;3.20;2.72;;;;;;;23.51;64.21;99400.72;6678517;26;34856;-86
2022/09/14 15:51:25;;;;;;;3.17;2.90;;;;;;;23.50;64.38;99399.09;6674622;26;34499;-86
2022/09/14 15:54:33;;;;;;;3.85;3.10;;;;;;;23.45;64.44;99385.41;6671805;26;34777;-86
2022/09/14 15:57:36;;;;;;;4.72;3.33;;;;;;;23.44;65.26;99388.44;6669973;26;33659;-85
2022/09/14 16:00:44;;;;;;;5.70;3.42;;;;;;;23.51;64.37;99400.72;6653864;26;32892;-87
2022/09/14 16:03:47;;;;;;;6.07;3.17;;;;;;;23.34;65.79;99405.81;6651860;26;32766;-86
2022/09/14 16:06:49;;;;;;;2.70;2.50;;;;;;;23.26;65.47;99414.69;6642141;26;33495;-86
